sensor_id;sensor_type;location;lat;lon;timestamp;P1;durP1;ratioP1;P2;durP2;ratioP2
3881;SDS011;1956;53.482;10.238;2023-03-25T00:03:55;7.97;;;4.28;;
3881;SDS011;1956;53.482;10.238;2023-03-25T00:08:57;4.83;;;4.03;;
3881;SDS011;1956;53.482;10.238;2023-03-25T00:13:57;7.20;;;4.50;;
3881;SDS011;1956;53.482;10.238;2023-03-25T00:18:57;6.90;;;3.17;;
3881;SDS011;1956;53.482;10.238;2023-03-25T00:24:00;8.93;;;4.23;;
3881;SDS011;1956;53.482;10.238;2023-03-25T00:29:01;9.37;;;4.63;;
3881;SDS011;1956;53.482;10.238;2023-03-25T00:34:01;7.10;;;3.80;;
3881;SDS011;1956;53.482;10.238;2023-03-25T00:39:02;10.07;;;4.20;;
3881;SDS011;1956;53.482;10.238;2023-03-25T00:44:03;10.20;;;4.30;;
3881;SDS011;1956;53.482;10.238;2023-03-25T00:49:03;4.50;;;4.10;;
3881;SDS011;1956;53.482;10.238;2023-03-25T00:54:03;8.93;;;3.77;;
3881;SDS011;1956;53.482;10.238;2023-03-25T00:59:04;7.83;;;3.83;;
3881;SDS011;1956;53.482;10.238;2023-03-25T01:04:05;5.87;;;4.00;;
3881;SDS011;1956;53.482;10.238;2023-03-25T01:09:12;8.17;;;3.60;;
3881;SDS011;1956;53.482;10.238;2023-03-25T01:14:14;7.40;;;3.63;;
3881;SDS011;1956;53.482;10.238;2023-03-25T01:19:15;10.80;;;5.20;;
3881;SDS011;1956;53.482;10.238;2023-03-25T01:24:15;5.40;;;4.03;;
3881;SDS011;1956;53.482;10.238;2023-03-25T01:29:16;6.33;;;4.57;;
3881;SDS011;1956;53.482;10.238;2023-03-25T01:34:17;13.17;;;4.80;;
3881;SDS011;1956;53.482;10.238;2023-03-25T01:39:17;4.57;;;3.70;;
3881;SDS011;1956;53.482;10.238;2023-03-25T01:49:41;5.70;;;3.93;;
3881;SDS011;1956;53.482;10.238;2023-03-25T01:54:45;3.73;;;3.43;;
3881;SDS011;1956;53.482;10.238;2023-03-25T01:59:46;5.80;;;3.00;;
3881;SDS011;1956;53.482;10.238;2023-03-25T02:04:49;6.00;;;3.10;;
3881;SDS011;1956;53.482;10.238;2023-03-25T02:10:02;5.20;;;3.63;;
3881;SDS011;1956;53.482;10.238;2023-03-25T02:15:04;12.50;;;3.40;;
3881;SDS011;1956;53.482;10.238;2023-03-25T02:25:50;6.90;;;3.73;;
3881;SDS011;1956;53.482;10.238;2023-03-25T02:31:01;5.50;;;3.33;;
3881;SDS011;1956;53.482;10.238;2023-03-25T02:41:52;4.87;;;3.80;;
3881;SDS011;1956;53.482;10.238;2023-03-25T02:46:56;8.20;;;4.00;;
3881;SDS011;1956;53.482;10.238;2023-03-25T02:52:04;5.43;;;3.23;;
3881;SDS011;1956;53.482;10.238;2023-03-25T02:57:05;8.67;;;4.10;;
3881;SDS011;1956;53.482;10.238;2023-03-25T03:02:07;14.43;;;4.27;;
3881;SDS011;1956;53.482;10.238;2023-03-25T03:07:08;7.20;;;3.40;;
3881;SDS011;1956;53.482;10.238;2023-03-25T03:12:18;7.03;;;3.00;;
3881;SDS011;1956;53.482;10.238;2023-03-25T03:17:26;7.70;;;3.30;;
3881;SDS011;1956;53.482;10.238;2023-03-25T03:22:38;3.80;;;2.97;;
3881;SDS011;1956;53.482;10.238;2023-03-25T03:27:42;5.77;;;3.13;;
3881;SDS011;1956;53.482;10.238;2023-03-25T03:32:47;5.33;;;3.00;;
3881;SDS011;1956;53.482;10.238;2023-03-25T03:37:50;8.20;;;3.37;;
3881;SDS011;1956;53.482;10.238;2023-03-25T03:42:54;8.83;;;3.43;;
3881;SDS011;1956;53.482;10.238;2023-03-25T03:47:56;4.67;;;3.10;;
3881;SDS011;1956;53.482;10.238;2023-03-25T03:53:04;7.30;;;3.50;;
3881;SDS011;1956;53.482;10.238;2023-03-25T03:58:07;6.17;;;4.30;;
3881;SDS011;1956;53.482;10.238;2023-03-25T04:03:18;4.67;;;3.30;;
3881;SDS011;1956;53.482;10.238;2023-03-25T04:08:36;4.50;;;4.07;;
3881;SDS011;1956;53.482;10.238;2023-03-25T04:13:42;7.30;;;4.23;;
3881;SDS011;1956;53.482;10.238;2023-03-25T04:18:43;8.03;;;3.60;;
3881;SDS011;1956;53.482;10.238;2023-03-25T04:23:46;6.00;;;3.83;;
3881;SDS011;1956;53.482;10.238;2023-03-25T04:28:48;5.53;;;3.47;;
3881;SDS011;1956;53.482;10.238;2023-03-25T04:33:49;5.30;;;3.17;;
3881;SDS011;1956;53.482;10.238;2023-03-25T04:38:50;6.30;;;3.23;;
3881;SDS011;1956;53.482;10.238;2023-03-25T04:43:52;6.50;;;3.90;;
3881;SDS011;1956;53.482;10.238;2023-03-25T04:48:52;12.17;;;3.17;;
3881;SDS011;1956;53.482;10.238;2023-03-25T04:53:52;7.50;;;2.80;;
3881;SDS011;1956;53.482;10.238;2023-03-25T04:58:53;4.77;;;2.97;;
3881;SDS011;1956;53.482;10.238;2023-03-25T05:03:53;9.63;;;2.77;;
3881;SDS011;1956;53.482;10.238;2023-03-25T05:08:53;8.00;;;2.10;;
3881;SDS011;1956;53.482;10.238;2023-03-25T05:13:53;2.25;;;1.80;;
3881;SDS011;1956;53.482;10.238;2023-03-25T05:18:54;9.10;;;2.47;;
3881;SDS011;1956;53.482;10.238;2023-03-25T05:23:54;4.50;;;2.17;;
3881;SDS011;1956;53.482;10.238;2023-03-25T05:28:57;4.80;;;2.00;;
3881;SDS011;1956;53.482;10.238;2023-03-25T05:34:00;6.63;;;2.33;;
3881;SDS011;1956;53.482;10.238;2023-03-25T05:39:01;6.23;;;2.43;;
3881;SDS011;1956;53.482;10.238;2023-03-25T05:44:01;8.43;;;3.60;;
3881;SDS011;1956;53.482;10.238;2023-03-25T05:49:02;6.30;;;2.30;;
3881;SDS011;1956;53.482;10.238;2023-03-25T05:54:02;6.72;;;1.83;;
3881;SDS011;1956;53.482;10.238;2023-03-25T05:59:02;8.23;;;2.63;;
3881;SDS011;1956;53.482;10.238;2023-03-25T06:04:03;5.43;;;2.20;;
3881;SDS011;1956;53.482;10.238;2023-03-25T06:09:04;3.30;;;2.10;;
3881;SDS011;1956;53.482;10.238;2023-03-25T06:14:04;5.50;;;2.30;;
3881;SDS011;1956;53.482;10.238;2023-03-25T06:19:05;11.05;;;2.25;;
3881;SDS011;1956;53.482;10.238;2023-03-25T06:24:08;10.57;;;2.70;;
3881;SDS011;1956;53.482;10.238;2023-03-25T06:29:08;4.00;;;2.50;;
3881;SDS011;1956;53.482;10.238;2023-03-25T06:34:08;4.33;;;3.07;;
3881;SDS011;1956;53.482;10.238;2023-03-25T06:39:09;4.87;;;2.73;;
3881;SDS011;1956;53.482;10.238;2023-03-25T06:44:09;8.70;;;2.90;;
3881;SDS011;1956;53.482;10.238;2023-03-25T06:49:09;9.17;;;2.30;;
3881;SDS011;1956;53.482;10.238;2023-03-25T06:54:10;5.97;;;2.27;;
3881;SDS011;1956;53.482;10.238;2023-03-25T06:59:10;5.70;;;2.67;;
3881;SDS011;1956;53.482;10.238;2023-03-25T07:04:10;6.63;;;3.10;;
3881;SDS011;1956;53.482;10.238;2023-03-25T07:09:10;8.50;;;2.87;;
3881;SDS011;1956;53.482;10.238;2023-03-25T07:14:10;10.97;;;2.33;;
3881;SDS011;1956;53.482;10.238;2023-03-25T07:19:11;9.70;;;2.33;;
3881;SDS011;1956;53.482;10.238;2023-03-25T07:24:11;4.00;;;2.37;;
3881;SDS011;1956;53.482;10.238;2023-03-25T07:29:11;12.60;;;2.30;;
3881;SDS011;1956;53.482;10.238;2023-03-25T07:34:11;8.80;;;2.30;;
3881;SDS011;1956;53.482;10.238;2023-03-25T07:39:12;4.03;;;1.77;;
3881;SDS011;1956;53.482;10.238;2023-03-25T07:44:12;5.25;;;1.85;;
3881;SDS011;1956;53.482;10.238;2023-03-25T07:49:14;5.20;;;1.57;;
3881;SDS011;1956;53.482;10.238;2023-03-25T07:54:15;5.23;;;1.97;;
3881;SDS011;1956;53.482;10.238;2023-03-25T07:59:15;6.53;;;2.03;;
3881;SDS011;1956;53.482;10.238;2023-03-25T08:04:16;5.00;;;2.23;;
3881;SDS011;1956;53.482;10.238;2023-03-25T08:09:16;4.20;;;1.55;;
3881;SDS011;1956;53.482;10.238;2023-03-25T08:14:16;6.30;;;1.67;;
3881;SDS011;1956;53.482;10.238;2023-03-25T08:19:16;5.90;;;2.00;;
3881;SDS011;1956;53.482;10.238;2023-03-25T08:24:17;7.80;;;1.70;;
3881;SDS011;1956;53.482;10.238;2023-03-25T08:29:17;4.93;;;1.57;;
3881;SDS011;1956;53.482;10.238;2023-03-25T08:34:19;8.03;;;2.00;;
3881;SDS011;1956;53.482;10.238;2023-03-25T08:39:20;2.00;;;1.20;;
3881;SDS011;1956;53.482;10.238;2023-03-25T08:44:21;4.90;;;1.60;;
3881;SDS011;1956;53.482;10.238;2023-03-25T08:49:21;4.27;;;2.13;;
3881;SDS011;1956;53.482;10.238;2023-03-25T08:54:21;7.73;;;1.67;;
3881;SDS011;1956;53.482;10.238;2023-03-25T08:59:22;8.53;;;1.90;;
3881;SDS011;1956;53.482;10.238;2023-03-25T09:04:22;4.13;;;1.97;;
3881;SDS011;1956;53.482;10.238;2023-03-25T09:09:22;3.47;;;1.60;;
3881;SDS011;1956;53.482;10.238;2023-03-25T09:14:23;4.00;;;1.93;;
3881;SDS011;1956;53.482;10.238;2023-03-25T09:19:23;2.63;;;1.65;;
3881;SDS011;1956;53.482;10.238;2023-03-25T09:24:23;2.50;;;1.80;;
3881;SDS011;1956;53.482;10.238;2023-03-25T09:29:24;6.60;;;2.50;;
3881;SDS011;1956;53.482;10.238;2023-03-25T09:34:24;5.27;;;1.67;;
3881;SDS011;1956;53.482;10.238;2023-03-25T09:39:26;2.43;;;1.43;;
3881;SDS011;1956;53.482;10.238;2023-03-25T09:44:27;5.10;;;1.30;;
3881;SDS011;1956;53.482;10.238;2023-03-25T09:49:34;4.40;;;1.40;;
3881;SDS011;1956;53.482;10.238;2023-03-25T09:54:37;2.30;;;1.17;;
3881;SDS011;1956;53.482;10.238;2023-03-25T09:59:49;5.33;;;1.30;;
3881;SDS011;1956;53.482;10.238;2023-03-25T10:16:18;2.03;;;1.20;;
3881;SDS011;1956;53.482;10.238;2023-03-25T10:26:54;2.17;;;0.97;;
3881;SDS011;1956;53.482;10.238;2023-03-25T10:31:34;6.60;;;1.97;;
3881;SDS011;1956;53.482;10.238;2023-03-25T10:36:43;5.43;;;1.50;;
3881;SDS011;1956;53.482;10.238;2023-03-25T10:42:02;6.87;;;1.27;;
3881;SDS011;1956;53.482;10.238;2023-03-25T10:47:05;11.07;;;2.00;;
3881;SDS011;1956;53.482;10.238;2023-03-25T10:52:07;12.37;;;2.70;;
3881;SDS011;1956;53.482;10.238;2023-03-25T10:57:09;3.83;;;1.00;;
3881;SDS011;1956;53.482;10.238;2023-03-25T11:02:13;2.33;;;1.40;;
3881;SDS011;1956;53.482;10.238;2023-03-25T11:07:18;9.40;;;1.73;;
3881;SDS011;1956;53.482;10.238;2023-03-25T11:12:19;7.37;;;1.50;;
3881;SDS011;1956;53.482;10.238;2023-03-25T11:17:21;5.17;;;1.87;;
3881;SDS011;1956;53.482;10.238;2023-03-25T11:22:27;5.17;;;1.80;;
3881;SDS011;1956;53.482;10.238;2023-03-25T11:27:28;6.60;;;2.10;;
3881;SDS011;1956;53.482;10.238;2023-03-25T11:32:33;5.50;;;1.63;;
3881;SDS011;1956;53.482;10.238;2023-03-25T11:37:35;4.73;;;1.73;;
3881;SDS011;1956;53.482;10.238;2023-03-25T11:42:45;6.13;;;2.10;;
3881;SDS011;1956;53.482;10.238;2023-03-25T11:47:50;8.50;;;2.00;;
3881;SDS011;1956;53.482;10.238;2023-03-25T11:52:52;3.40;;;1.40;;
3881;SDS011;1956;53.482;10.238;2023-03-25T11:57:54;2.03;;;1.17;;
3881;SDS011;1956;53.482;10.238;2023-03-25T12:03:31;0.90;;;0.63;;
3881;SDS011;1956;53.482;10.238;2023-03-25T12:08:27;2.40;;;0.70;;
3881;SDS011;1956;53.482;10.238;2023-03-25T12:13:34;7.87;;;1.20;;
3881;SDS011;1956;53.482;10.238;2023-03-25T12:19:00;0.73;;;0.40;;
3881;SDS011;1956;53.482;10.238;2023-03-25T12:24:08;1.03;;;0.60;;
3881;SDS011;1956;53.482;10.238;2023-03-25T12:29:18;3.63;;;2.30;;
3881;SDS011;1956;53.482;10.238;2023-03-25T12:34:32;2.73;;;1.00;;
3881;SDS011;1956;53.482;10.238;2023-03-25T12:39:47;3.03;;;0.80;;
3881;SDS011;1956;53.482;10.238;2023-03-25T12:50:19;1.40;;;1.13;;
3881;SDS011;1956;53.482;10.238;2023-03-25T12:55:42;2.50;;;1.60;;
3881;SDS011;1956;53.482;10.238;2023-03-25T13:11:44;8.23;;;1.90;;
3881;SDS011;1956;53.482;10.238;2023-03-25T13:16:46;3.10;;;1.90;;
3881;SDS011;1956;53.482;10.238;2023-03-25T13:21:50;5.50;;;1.60;;
3881;SDS011;1956;53.482;10.238;2023-03-25T13:26:51;2.60;;;1.80;;
3881;SDS011;1956;53.482;10.238;2023-03-25T13:31:53;8.17;;;1.60;;
3881;SDS011;1956;53.482;10.238;2023-03-25T13:37:07;3.93;;;2.03;;
3881;SDS011;1956;53.482;10.238;2023-03-25T13:42:12;9.33;;;2.10;;
3881;SDS011;1956;53.482;10.238;2023-03-25T13:47:16;7.63;;;2.50;;
3881;SDS011;1956;53.482;10.238;2023-03-25T13:52:18;5.20;;;2.03;;
3881;SDS011;1956;53.482;10.238;2023-03-25T13:57:27;5.20;;;2.17;;
3881;SDS011;1956;53.482;10.238;2023-03-25T14:02:34;9.50;;;4.63;;
3881;SDS011;1956;53.482;10.238;2023-03-25T14:07:43;5.80;;;2.57;;
3881;SDS011;1956;53.482;10.238;2023-03-25T14:12:46;6.40;;;2.10;;
3881;SDS011;1956;53.482;10.238;2023-03-25T14:17:49;6.80;;;2.33;;
3881;SDS011;1956;53.482;10.238;2023-03-25T14:22:55;7.00;;;1.90;;
3881;SDS011;1956;53.482;10.238;2023-03-25T14:27:56;4.93;;;1.60;;
3881;SDS011;1956;53.482;10.238;2023-03-25T14:32:56;3.37;;;1.00;;
3881;SDS011;1956;53.482;10.238;2023-03-25T14:43:36;3.30;;;0.80;;
3881;SDS011;1956;53.482;10.238;2023-03-25T14:48:40;7.30;;;1.17;;
3881;SDS011;1956;53.482;10.238;2023-03-25T14:53:51;4.40;;;1.83;;
3881;SDS011;1956;53.482;10.238;2023-03-25T14:58:52;5.17;;;1.30;;
3881;SDS011;1956;53.482;10.238;2023-03-25T15:04:05;1.70;;;1.10;;
3881;SDS011;1956;53.482;10.238;2023-03-25T15:09:07;2.53;;;0.90;;
3881;SDS011;1956;53.482;10.238;2023-03-25T15:14:15;2.03;;;0.80;;
3881;SDS011;1956;53.482;10.238;2023-03-25T15:19:18;1.73;;;0.97;;
3881;SDS011;1956;53.482;10.238;2023-03-25T15:24:28;2.00;;;0.87;;
3881;SDS011;1956;53.482;10.238;2023-03-25T15:40:01;1.30;;;1.00;;
3881;SDS011;1956;53.482;10.238;2023-03-25T15:50:43;3.90;;;0.73;;
3881;SDS011;1956;53.482;10.238;2023-03-25T15:55:52;2.60;;;0.77;;
3881;SDS011;1956;53.482;10.238;2023-03-25T16:00:55;1.20;;;0.77;;
3881;SDS011;1956;53.482;10.238;2023-03-25T16:06:00;3.63;;;2.50;;
3881;SDS011;1956;53.482;10.238;2023-03-25T16:11:15;4.10;;;2.60;;
3881;SDS011;1956;53.482;10.238;2023-03-25T16:16:21;1.97;;;1.40;;
3881;SDS011;1956;53.482;10.238;2023-03-25T16:21:22;3.30;;;1.20;;
3881;SDS011;1956;53.482;10.238;2023-03-25T16:26:32;3.97;;;2.20;;
3881;SDS011;1956;53.482;10.238;2023-03-25T16:31:32;1.73;;;1.40;;
3881;SDS011;1956;53.482;10.238;2023-03-25T16:36:44;4.83;;;1.93;;
3881;SDS011;1956;53.482;10.238;2023-03-25T16:41:46;1.30;;;1.20;;
3881;SDS011;1956;53.482;10.238;2023-03-25T16:46:47;5.50;;;1.40;;
3881;SDS011;1956;53.482;10.238;2023-03-25T16:51:49;2.80;;;1.30;;
3881;SDS011;1956;53.482;10.238;2023-03-25T16:56:49;3.50;;;1.20;;
3881;SDS011;1956;53.482;10.238;2023-03-25T17:01:52;5.90;;;1.10;;
3881;SDS011;1956;53.482;10.238;2023-03-25T17:06:54;3.30;;;1.17;;
3881;SDS011;1956;53.482;10.238;2023-03-25T17:11:55;4.33;;;1.30;;
3881;SDS011;1956;53.482;10.238;2023-03-25T17:16:56;2.50;;;1.20;;
3881;SDS011;1956;53.482;10.238;2023-03-25T17:22:06;2.00;;;1.20;;
3881;SDS011;1956;53.482;10.238;2023-03-25T17:27:24;3.33;;;1.87;;
3881;SDS011;1956;53.482;10.238;2023-03-25T17:32:24;2.23;;;1.30;;
3881;SDS011;1956;53.482;10.238;2023-03-25T17:37:25;3.30;;;0.97;;
3881;SDS011;1956;53.482;10.238;2023-03-25T17:42:35;4.23;;;0.80;;
3881;SDS011;1956;53.482;10.238;2023-03-25T17:47:36;3.10;;;0.70;;
3881;SDS011;1956;53.482;10.238;2023-03-25T17:52:37;1.40;;;0.80;;
3881;SDS011;1956;53.482;10.238;2023-03-25T17:57:38;2.87;;;0.90;;
3881;SDS011;1956;53.482;10.238;2023-03-25T18:02:38;1.27;;;1.17;;
3881;SDS011;1956;53.482;10.238;2023-03-25T18:07:40;2.60;;;2.13;;
3881;SDS011;1956;53.482;10.238;2023-03-25T18:12:40;2.20;;;1.20;;
3881;SDS011;1956;53.482;10.238;2023-03-25T18:17:41;2.60;;;1.93;;
3881;SDS011;1956;53.482;10.238;2023-03-25T18:22:41;2.77;;;1.30;;
3881;SDS011;1956;53.482;10.238;2023-03-25T18:27:41;2.20;;;1.00;;
3881;SDS011;1956;53.482;10.238;2023-03-25T18:32:42;42.47;;;20.67;;
3881;SDS011;1956;53.482;10.238;2023-03-25T18:37:42;33.33;;;14.07;;
3881;SDS011;1956;53.482;10.238;2023-03-25T18:42:42;11.23;;;7.00;;
3881;SDS011;1956;53.482;10.238;2023-03-25T18:47:43;14.65;;;6.13;;
3881;SDS011;1956;53.482;10.238;2023-03-25T18:52:43;13.60;;;4.50;;
3881;SDS011;1956;53.482;10.238;2023-03-25T18:57:44;7.10;;;3.00;;
3881;SDS011;1956;53.482;10.238;2023-03-25T19:02:45;17.17;;;4.10;;
3881;SDS011;1956;53.482;10.238;2023-03-25T19:07:46;3.50;;;1.40;;
3881;SDS011;1956;53.482;10.238;2023-03-25T19:12:46;4.00;;;1.90;;
3881;SDS011;1956;53.482;10.238;2023-03-25T19:17:47;4.10;;;1.60;;
3881;SDS011;1956;53.482;10.238;2023-03-25T19:22:47;5.20;;;1.97;;
3881;SDS011;1956;53.482;10.238;2023-03-25T19:27:47;2.60;;;1.52;;
3881;SDS011;1956;53.482;10.238;2023-03-25T19:32:49;5.00;;;2.20;;
3881;SDS011;1956;53.482;10.238;2023-03-25T19:37:50;6.33;;;1.80;;
3881;SDS011;1956;53.482;10.238;2023-03-25T19:42:51;5.63;;;2.00;;
3881;SDS011;1956;53.482;10.238;2023-03-25T19:47:52;4.97;;;1.30;;
3881;SDS011;1956;53.482;10.238;2023-03-25T19:52:53;4.03;;;1.63;;
3881;SDS011;1956;53.482;10.238;2023-03-25T19:57:53;6.20;;;1.63;;
3881;SDS011;1956;53.482;10.238;2023-03-25T20:02:55;4.23;;;1.83;;
3881;SDS011;1956;53.482;10.238;2023-03-25T20:08:00;4.13;;;1.73;;
3881;SDS011;1956;53.482;10.238;2023-03-25T20:13:00;5.60;;;2.00;;
3881;SDS011;1956;53.482;10.238;2023-03-25T20:18:00;7.07;;;2.50;;
3881;SDS011;1956;53.482;10.238;2023-03-25T20:23:01;14.70;;;2.37;;
3881;SDS011;1956;53.482;10.238;2023-03-25T20:28:01;4.47;;;2.63;;
3881;SDS011;1956;53.482;10.238;2023-03-25T20:33:02;12.38;;;2.75;;
3881;SDS011;1956;53.482;10.238;2023-03-25T20:38:02;16.40;;;3.57;;
3881;SDS011;1956;53.482;10.238;2023-03-25T20:43:02;18.27;;;3.10;;
3881;SDS011;1956;53.482;10.238;2023-03-25T20:48:03;9.53;;;2.60;;
3881;SDS011;1956;53.482;10.238;2023-03-25T20:53:05;7.73;;;2.97;;
3881;SDS011;1956;53.482;10.238;2023-03-25T20:58:05;9.27;;;2.63;;
3881;SDS011;1956;53.482;10.238;2023-03-25T21:03:07;6.73;;;1.83;;
3881;SDS011;1956;53.482;10.238;2023-03-25T21:08:07;13.20;;;2.20;;
3881;SDS011;1956;53.482;10.238;2023-03-25T21:13:08;11.77;;;2.80;;
3881;SDS011;1956;53.482;10.238;2023-03-25T21:18:08;6.90;;;2.47;;
3881;SDS011;1956;53.482;10.238;2023-03-25T21:23:09;5.90;;;2.87;;
3881;SDS011;1956;53.482;10.238;2023-03-25T21:28:09;10.73;;;3.07;;
3881;SDS011;1956;53.482;10.238;2023-03-25T21:33:10;9.20;;;2.63;;
3881;SDS011;1956;53.482;10.238;2023-03-25T21:38:10;8.00;;;2.72;;
3881;SDS011;1956;53.482;10.238;2023-03-25T21:43:11;6.30;;;2.70;;
3881;SDS011;1956;53.482;10.238;2023-03-25T21:48:11;5.53;;;2.10;;
3881;SDS011;1956;53.482;10.238;2023-03-25T21:53:11;7.53;;;2.17;;
3881;SDS011;1956;53.482;10.238;2023-03-25T21:58:12;3.33;;;1.57;;
3881;SDS011;1956;53.482;10.238;2023-03-25T22:03:12;9.27;;;2.20;;
3881;SDS011;1956;53.482;10.238;2023-03-25T22:08:16;12.53;;;2.43;;
3881;SDS011;1956;53.482;10.238;2023-03-25T22:13:16;8.60;;;1.83;;
3881;SDS011;1956;53.482;10.238;2023-03-25T22:18:16;10.60;;;2.53;;
3881;SDS011;1956;53.482;10.238;2023-03-25T22:23:17;17.30;;;3.80;;
3881;SDS011;1956;53.482;10.238;2023-03-25T22:28:17;8.63;;;2.40;;
3881;SDS011;1956;53.482;10.238;2023-03-25T22:33:17;11.23;;;3.85;;
3881;SDS011;1956;53.482;10.238;2023-03-25T22:38:17;11.33;;;3.63;;
3881;SDS011;1956;53.482;10.238;2023-03-25T22:43:18;13.63;;;3.07;;
3881;SDS011;1956;53.482;10.238;2023-03-25T22:48:18;6.07;;;2.30;;
3881;SDS011;1956;53.482;10.238;2023-03-25T22:53:18;8.50;;;3.00;;
3881;SDS011;1956;53.482;10.238;2023-03-25T22:58:19;5.87;;;2.20;;
3881;SDS011;1956;53.482;10.238;2023-03-25T23:03:20;13.43;;;2.73;;
3881;SDS011;1956;53.482;10.238;2023-03-25T23:08:20;13.50;;;2.90;;
3881;SDS011;1956;53.482;10.238;2023-03-25T23:13:25;5.47;;;2.17;;
3881;SDS011;1956;53.482;10.238;2023-03-25T23:18:25;18.77;;;2.80;;
3881;SDS011;1956;53.482;10.238;2023-03-25T23:23:26;10.13;;;3.00;;
3881;SDS011;1956;53.482;10.238;2023-03-25T23:28:28;10.53;;;2.90;;
3881;SDS011;1956;53.482;10.238;2023-03-25T23:33:29;9.63;;;3.40;;
3881;SDS011;1956;53.482;10.238;2023-03-25T23:38:30;11.90;;;3.47;;
3881;SDS011;1956;53.482;10.238;2023-03-25T23:43:31;15.73;;;3.73;;
3881;SDS011;1956;53.482;10.238;2023-03-25T23:48:32;19.80;;;3.50;;
3881;SDS011;1956;53.482;10.238;2023-03-25T23:53:32;8.30;;;3.03;;
3881;SDS011;1956;53.482;10.238;2023-03-25T23:58:35;14.10;;;5.03;;
